Shinkomaru No.8 — JK5142 — position and weather

sailwx.info

Track history (hours):
 
Tides and Currents Weather Stations Pressure Air Temp Water Temp Dewpoint Dewpoint Depression Visibility Wind Speed Wind Dir Waves Ship Positions

Shinkomaru No.8

Last reported at 2014-Dec-19 09:34 UTC. Time now 2014-Dec-20 08:44 UTC.
Position N 34°37' E 134°54'.

Length 61 m; draft 4.4 m.

Type: Tanker. MMSI: 431400035.

Date/timePositionNaut miles runAvg speedWind from/ knotsBaromVisibWave heightAir tempDewpointWater temp
2014-Dec-19 09:34N 34°37' E 134°54'1110.6
2014-Dec-19 08:33N 34°32' E 135°05'1712.5
2014-Dec-19 07:12N 34°15' E 135°03'3 4.6
2014-Dec-19 06:30N 34°14' E 135°07'0 0.0
2014-Dec-19 05:29N 34°14' E 135°07'0 0.0
2014-Dec-19 04:30N 34°14' E 135°07'0 0.0
2014-Dec-19 03:28N 34°14' E 135°07'0 0.0
2014-Dec-19 02:28N 34°14' E 135°07'0 0.0
2014-Dec-19 01:25N 34°14' E 135°07'0 0.0
2014-Dec-19 00:28N 34°14' E 135°07'0 0.0
2014-Dec-18 23:28N 34°14' E 135°07'0 0.0
2014-Dec-18 22:34N 34°14' E 135°07'2 0.6
2014-Dec-18 19:18N 34°13' E 135°09'0 0.0
2014-Dec-18 09:25N 34°13' E 135°09'0 0.0
2014-Dec-18 06:27N 34°13' E 135°09'0 0.0
2014-Dec-18 04:33N 34°13' E 135°09'0 0.0
2014-Dec-18 03:33N 34°13' E 135°09'0 0.0
2014-Dec-18 02:34N 34°13' E 135°09'9 0.3
2014-Dec-17 00:05N 34°20' E 135°02'5 8.6
2014-Dec-16 23:33N 34°15' E 135°04'3 3.3
2014-Dec-16 22:33N 34°14' E 135°07'9 7.4
2014-Dec-16 21:22N 34°23' E 135°09'1 0.7
2014-Dec-16 20:17N 34°23' E 135°10'0 0.0
2014-Dec-16 18:29N 34°23' E 135°10'0 0.0
2014-Dec-16 17:26N 34°23' E 135°10'0 0.0
2014-Dec-16 16:32N 34°23' E 135°10'0 0.0
2014-Dec-16 15:23N 34°23' E 135°10'0 0.0
2014-Dec-16 14:32N 34°23' E 135°10'0 0.0
2014-Dec-16 12:11N 34°23' E 135°10'0 0.0
2014-Dec-16 11:08N 34°23' E 135°10'0 0.0
2014-Dec-16 10:11N 34°23' E 135°10'1 1.8
2014-Dec-16 09:33N 34°24' E 135°09'1313.1
2014-Dec-16 08:33N 34°36' E 135°03'1311.9
2014-Dec-16 07:27N 34°40' E 134°48'  
2014-Dec-10 01:09N 34°40' E 134°47'913.7
2014-Dec-10 00:31N 34°38' E 134°58'1010.8
2014-Dec-09 23:33N 34°28' E 135°03'1513.1
2014-Dec-09 22:24N 34°14' E 134°59'  
Track history (hours):
 
Tides and Currents Weather Stations Pressure Air Temp Water Temp Dewpoint Dewpoint Depression Visibility Wind Speed Wind Dir Waves Ship Positions

Shinkomaru No.8

Last reported at 2014-Dec-19 09:34 UTC. Time now 2014-Dec-20 08:44 UTC.
Position N 34°37' E 134°54'.

Length 61 m; draft 4.4 m.

Type: Tanker. MMSI: 431400035.

Date/timePositionNaut miles runAvg speedWind from/ knotsBaromVisibWave heightAir tempDewpointWater temp
2014-Dec-19 09:34N 34°37' E 134°54'1110.6
2014-Dec-19 08:33N 34°32' E 135°05'1712.5
2014-Dec-19 07:12N 34°15' E 135°03'3 4.6
2014-Dec-19 06:30N 34°14' E 135°07'0 0.0
2014-Dec-19 05:29N 34°14' E 135°07'0 0.0
2014-Dec-19 04:30N 34°14' E 135°07'0 0.0
2014-Dec-19 03:28N 34°14' E 135°07'0 0.0
2014-Dec-19 02:28N 34°14' E 135°07'0 0.0
2014-Dec-19 01:25N 34°14' E 135°07'0 0.0
2014-Dec-19 00:28N 34°14' E 135°07'0 0.0
2014-Dec-18 23:28N 34°14' E 135°07'0 0.0
2014-Dec-18 22:34N 34°14' E 135°07'2 0.6
2014-Dec-18 19:18N 34°13' E 135°09'0 0.0
2014-Dec-18 09:25N 34°13' E 135°09'0 0.0
2014-Dec-18 06:27N 34°13' E 135°09'0 0.0
2014-Dec-18 04:33N 34°13' E 135°09'0 0.0
2014-Dec-18 03:33N 34°13' E 135°09'0 0.0
2014-Dec-18 02:34N 34°13' E 135°09'9 0.3
2014-Dec-17 00:05N 34°20' E 135°02'5 8.6
2014-Dec-16 23:33N 34°15' E 135°04'3 3.3
2014-Dec-16 22:33N 34°14' E 135°07'9 7.4
2014-Dec-16 21:22N 34°23' E 135°09'1 0.7
2014-Dec-16 20:17N 34°23' E 135°10'0 0.0
2014-Dec-16 18:29N 34°23' E 135°10'0 0.0
2014-Dec-16 17:26N 34°23' E 135°10'0 0.0
2014-Dec-16 16:32N 34°23' E 135°10'0 0.0
2014-Dec-16 15:23N 34°23' E 135°10'0 0.0
2014-Dec-16 14:32N 34°23' E 135°10'0 0.0
2014-Dec-16 12:11N 34°23' E 135°10'0 0.0
2014-Dec-16 11:08N 34°23' E 135°10'0 0.0
2014-Dec-16 10:11N 34°23' E 135°10'1 1.8
2014-Dec-16 09:33N 34°24' E 135°09'1313.1
2014-Dec-16 08:33N 34°36' E 135°03'1311.9
2014-Dec-16 07:27N 34°40' E 134°48'  
2014-Dec-10 01:09N 34°40' E 134°47'913.7
2014-Dec-10 00:31N 34°38' E 134°58'1010.8
2014-Dec-09 23:33N 34°28' E 135°03'1513.1
2014-Dec-09 22:24N 34°14' E 134°59'  

Dump ship's entire track history